Albi, France

4:42 PM CEST on September 03, 2015 (GMT +0200)
station albi | | Change Station
CLOSE
Current Station
Personal Weather Station
Location: Albi, MIDI-PYRéNéES
Elevation: 594 ft
Nearby Weather Stations

Elev 594 ft 43.93 °N, 2.15 °E | Updated 23 seconds ago

Partly Cloudy
Partly Cloudy
72.0 °F
Feels Like 77 °F
N
0.9
Wind Variable Wind from WNW
Gusts 1.3 mph

Today
High -- | Low -- °F
--% Chance of Precip.
Yesterday
High -- | Low -- °F
Precip. -- in
7:16 AM 8:24 PM
Waning Gibbous, 69% visible
Pressure 30.01 in
Visibility 6.2 miles
Clouds Few 3700 ft
Heat Index 77 °F
Dew Point 54 °F
Humidity 51%
Rainfall 0.00 in
Snow Depth Not available.
UV 5 out of 12
Pollen Not available.
Air Quality Not available.
Flu Activity Not available.
METAR LFCK 031430Z AUTO 31005KT 280V020 9999 FEW037 22/13 Q1016
Pressure 30.01 in
Visibility 6.2 miles
Clouds Few 3700 ft
Heat Index 77 °F
Dew Point 54 °F
Humidity 51%
Rainfall 0.00 in
Snow Depth Not available.
UV 5 out of 12
Pollen Not available.
Air Quality Not available.
Flu Activity Not available.
METAR LFCK 031430Z AUTO 31005KT 280V020 9999 FEW037 22/13 Q1016

10-Day Weather Forecast

×

Almanac

Astronomy

Sep. 03, 2015 Rise Set
Actual Time
Civil Twilight
Nautical Twilight
Astronomical Twilight
Moon
Length of Visible Light
Length of Day
Tomorrow will be .
, % of the Moon is Illuminated

Today's Extremes

Country Highs Country Lows

Community

WunderPhotos

Upload Photos

1,851,960 photos uploaded!

WunderBlogs® & News

Nearby

Air Quality

  Air Quality AQ Index Pollutant
Not available.

Snow Depth

Station Depth Elevation

Earthquake Activity

City Distance Mag. Time & Date
Minimum magnitude displayed is 2.5.

Coastal Water Temperatures

Place Temperature

Stations

Nearby Weather Stations

Station Location Temp. Windchill Dew Point Humidity Wind Precip. Elev Updated Type